createdAt,value
2018-01-05T00:01:42.300Z,69.80
2018-01-05T00:04:08.485Z,70.30
2018-01-05T00:06:34.625Z,69.30
2018-01-05T00:09:00.804Z,69.50
2018-01-05T00:11:27.045Z,69.80
2018-01-05T00:13:54.024Z,70.50
2018-01-05T00:16:20.220Z,70.40
2018-01-05T00:18:46.474Z,70.20
2018-01-05T00:21:12.697Z,69.90
2018-01-05T00:23:38.950Z,69.70
2018-01-05T00:26:05.130Z,69.50
2018-01-05T00:28:31.349Z,69.10
2018-01-05T00:30:58.192Z,69.50
2018-01-05T00:33:24.436Z,69.80
2018-01-05T00:35:50.690Z,70.10
2018-01-05T00:38:16.880Z,70.30
2018-01-05T00:40:43.113Z,70.20
2018-01-05T00:43:09.283Z,69.10
2018-01-05T00:45:35.530Z,69.30
2018-01-05T00:48:02.519Z,69.60
2018-01-05T00:50:28.693Z,69.00
2018-01-05T00:52:54.906Z,69.10
2018-01-05T00:55:21.472Z,69.20
2018-01-05T00:57:48.438Z,69.20
2018-01-05T01:00:14.730Z,69.30
2018-01-05T01:02:40.938Z,69.00
2018-01-05T01:05:07.220Z,69.60
2018-01-05T01:07:33.407Z,69.50
2018-01-05T01:09:59.657Z,69.40
2018-01-05T01:12:25.862Z,69.60
2018-01-05T01:14:52.082Z,69.20
2018-01-05T01:17:18.278Z,69.50
2018-01-05T01:19:44.573Z,70.10
2018-01-05T01:22:10.771Z,70.00
2018-01-05T01:24:36.941Z,70.10
2018-01-05T01:27:03.134Z,69.90
2018-01-05T01:29:29.405Z,69.60
2018-01-05T01:31:55.572Z,69.30
2018-01-05T01:34:21.750Z,69.80
2018-01-05T01:36:47.952Z,68.70
2018-01-05T01:39:14.111Z,68.50
2018-01-05T01:41:40.410Z,68.90
2018-01-05T01:44:06.606Z,68.70
2018-01-05T01:46:32.849Z,68.40
2018-01-05T01:48:59.042Z,69.00
2018-01-05T01:51:25.216Z,68.40
2018-01-05T01:53:51.507Z,69.00
2018-01-05T01:56:17.669Z,68.70
2018-01-05T01:58:43.852Z,69.10
2018-01-05T02:01:10.401Z,69.40
2018-01-05T02:03:36.595Z,69.80
2018-01-05T02:06:03.203Z,70.20
2018-01-05T02:08:29.441Z,70.40
2018-01-05T02:10:55.611Z,71.00
2018-01-05T02:13:21.780Z,71.50
2018-01-05T02:15:47.989Z,71.70
2018-01-05T02:18:14.175Z,72.10
2018-01-05T02:20:40.366Z,72.00
2018-01-05T02:23:06.521Z,72.60
2018-01-05T02:25:32.685Z,72.40
2018-01-05T02:27:58.827Z,72.80
2018-01-05T02:30:25.083Z,73.40
2018-01-05T02:32:51.283Z,73.50
2018-01-05T02:35:17.429Z,73.70
2018-01-05T02:37:44.134Z,73.30
2018-01-05T02:40:10.315Z,73.20
2018-01-05T02:42:37.302Z,73.10
2018-01-05T02:45:03.472Z,73.40
2018-01-05T02:47:29.689Z,73.90
2018-01-05T02:49:55.897Z,73.90
2018-01-05T02:52:22.121Z,73.80
2018-01-05T02:54:49.086Z,74.30
2018-01-05T02:57:15.314Z,74.00
2018-01-05T02:59:42.222Z,74.30
2018-01-05T03:02:08.398Z,74.00
2018-01-05T03:04:34.553Z,74.60
2018-01-05T03:07:00.766Z,74.40
2018-01-05T03:09:26.946Z,74.90
2018-01-05T03:11:53.098Z,74.70
2018-01-05T03:14:20.102Z,75.20
2018-01-05T03:16:46.239Z,75.40
2018-01-05T03:19:12.448Z,75.60
2018-01-05T03:21:38.606Z,75.20
2018-01-05T03:24:04.836Z,75.20
2018-01-05T03:26:31.359Z,75.60
2018-01-05T03:28:57.943Z,75.60
2018-01-05T03:31:24.163Z,75.80
2018-01-05T03:33:50.326Z,76.00
2018-01-05T03:36:16.533Z,76.50
2018-01-05T03:38:42.688Z,76.70
2018-01-05T03:41:08.855Z,76.70
2018-01-05T03:43:35.026Z,77.10
2018-01-05T03:46:01.173Z,77.80
2018-01-05T03:48:27.338Z,78.40
2018-01-05T03:50:53.519Z,78.80
2018-01-05T03:53:19.721Z,78.90
2018-01-05T03:55:45.921Z,78.80
2018-01-05T03:58:12.060Z,79.40
2018-01-05T04:00:39.125Z,79.30
2018-01-05T04:03:05.297Z,79.50
2018-01-05T04:05:31.473Z,79.20
2018-01-05T04:07:57.772Z,79.70
2018-01-05T04:10:23.983Z,79.90
2018-01-05T04:12:50.190Z,79.50
2018-01-05T04:15:16.353Z,79.30
2018-01-05T04:17:42.563Z,79.50
2018-01-05T04:20:08.731Z,80.00
2018-01-05T04:22:35.655Z,80.10
2018-01-05T04:25:01.859Z,80.10
2018-01-05T04:27:28.003Z,80.60
2018-01-05T04:29:54.185Z,80.60
2018-01-05T04:32:20.358Z,81.00
2018-01-05T04:34:46.550Z,81.00
2018-01-05T04:37:12.755Z,81.40
2018-01-05T04:39:38.964Z,82.00
2018-01-05T04:42:05.125Z,82.10
2018-01-05T04:44:31.321Z,82.40
2018-01-05T04:46:57.549Z,83.10
2018-01-05T04:49:23.707Z,83.60
2018-01-05T04:51:49.983Z,84.60
2018-01-05T04:54:16.261Z,85.80
2018-01-05T04:56:42.574Z,86.40
2018-01-05T04:59:09.590Z,88.40
2018-01-05T05:01:35.820Z,88.50
2018-01-05T05:04:01.998Z,90.20
2018-01-05T05:06:28.268Z,90.50
2018-01-05T05:08:54.454Z,90.80
2018-01-05T05:11:20.733Z,90.80
2018-01-05T05:13:46.998Z,91.10
2018-01-05T05:16:13.195Z,90.90
2018-01-05T05:18:39.451Z,90.80
2018-01-05T05:21:05.655Z,90.70
2018-01-05T05:23:31.860Z,90.80
2018-01-05T05:25:58.062Z,90.80
2018-01-05T05:28:24.258Z,90.70
2018-01-05T05:30:50.463Z,90.60
2018-01-05T05:33:16.651Z,90.90
2018-01-05T05:35:43.603Z,90.80
2018-01-05T05:38:09.774Z,90.60
2018-01-05T05:40:35.937Z,90.80
2018-01-05T05:43:02.112Z,90.80
2018-01-05T05:45:28.275Z,90.90
2018-01-05T05:47:54.476Z,91.20
2018-01-05T05:50:20.668Z,90.80
2018-01-05T05:52:46.853Z,90.60
2018-01-05T05:55:13.076Z,90.50
2018-01-05T05:57:39.233Z,90.80
2018-01-05T06:00:05.450Z,90.80
2018-01-05T06:02:31.655Z,90.80
2018-01-05T06:04:57.862Z,90.80
2018-01-05T06:07:24.249Z,91.00
2018-01-05T06:09:50.507Z,91.00
2018-01-05T06:12:16.674Z,91.00
2018-01-05T06:14:42.870Z,91.20
2018-01-05T06:17:09.130Z,91.20
2018-01-05T06:19:35.340Z,91.20
2018-01-05T06:22:01.734Z,91.30
2018-01-05T06:24:28.001Z,91.30
2018-01-05T06:26:54.196Z,91.30
2018-01-05T06:29:20.562Z,91.30
2018-01-05T06:31:46.892Z,91.50
2018-01-05T06:34:13.232Z,91.40
2018-01-05T06:36:40.143Z,91.40
2018-01-05T06:39:06.447Z,91.40
2018-01-05T06:41:32.727Z,91.70
2018-01-05T06:43:58.946Z,91.90
2018-01-05T06:46:25.149Z,92.20
2018-01-05T06:48:51.395Z,92.40
2018-01-05T06:51:17.624Z,92.40
2018-01-05T06:53:43.843Z,92.90
2018-01-05T06:56:10.143Z,92.60
2018-01-05T06:58:36.373Z,92.80
2018-01-05T07:01:02.596Z,92.70
2018-01-05T07:03:29.492Z,93.00
2018-01-05T07:05:55.696Z,92.70
2018-01-05T07:08:21.896Z,92.90
2018-01-05T07:10:48.784Z,92.80
2018-01-05T07:13:15.692Z,92.90
2018-01-05T07:15:41.878Z,92.50
2018-01-05T07:18:08.342Z,92.30
2018-01-05T07:20:34.534Z,92.20
2018-01-05T07:23:00.728Z,92.50
2018-01-05T07:25:26.932Z,92.00
2018-01-05T07:27:53.266Z,91.90
2018-01-05T07:30:19.451Z,91.70
2018-01-05T07:32:45.652Z,91.90
2018-01-05T07:35:11.865Z,91.70
2018-01-05T07:37:38.133Z,91.30
2018-01-05T07:40:05.109Z,91.30
2018-01-05T07:42:31.394Z,91.50
2018-01-05T07:44:57.628Z,91.10
2018-01-05T07:47:23.846Z,91.40
2018-01-05T07:49:50.086Z,90.90
2018-01-05T07:52:16.389Z,91.20
2018-01-05T07:54:42.859Z,90.90
2018-01-05T07:57:09.115Z,91.10
2018-01-05T07:59:35.314Z,90.70
2018-01-05T08:02:01.487Z,90.60
2018-01-05T08:04:27.791Z,90.60
2018-01-05T08:06:53.974Z,90.60
2018-01-05T08:09:20.931Z,90.80
2018-01-05T08:11:47.461Z,90.60
2018-01-05T08:14:14.333Z,90.60
2018-01-05T08:16:41.638Z,90.60
2018-01-05T08:19:08.805Z,90.50
2018-01-05T08:21:35.381Z,90.60
2018-01-05T08:24:02.290Z,90.90
2018-01-05T08:26:28.483Z,90.70
2018-01-05T08:28:54.682Z,90.70
2018-01-05T08:31:22.647Z,90.80
2018-01-05T08:33:49.577Z,90.70
2018-01-05T08:36:15.786Z,90.70
2018-01-05T08:38:41.941Z,90.20
2018-01-05T08:41:08.170Z,90.30
2018-01-05T08:43:34.379Z,90.20
2018-01-05T08:46:00.551Z,90.50
2018-01-05T08:48:26.733Z,90.00
2018-01-05T08:50:52.897Z,90.10
2018-01-05T08:53:19.115Z,90.10
2018-01-05T08:55:45.733Z,90.00
2018-01-05T08:58:11.911Z,90.10
2018-01-05T09:00:38.114Z,90.40
2018-01-05T09:03:04.311Z,90.10
2018-01-05T09:05:31.254Z,90.70
2018-01-05T09:07:57.422Z,90.50
2018-01-05T09:10:23.687Z,90.70
2018-01-05T09:12:49.848Z,90.70
2018-01-05T09:15:16.800Z,91.00
2018-01-05T09:17:44.441Z,90.80
2018-01-05T09:20:11.166Z,91.00
2018-01-05T09:22:37.354Z,90.80
2018-01-05T09:25:03.526Z,91.00
2018-01-05T09:27:29.897Z,91.10
2018-01-05T09:29:56.111Z,91.30
2018-01-05T09:32:22.356Z,91.50
2018-01-05T09:34:48.559Z,91.80
2018-01-05T09:37:14.980Z,92.00
2018-01-05T09:39:41.165Z,92.20
2018-01-05T09:42:07.408Z,92.30
2018-01-05T09:44:33.567Z,92.40
2018-01-05T09:46:59.824Z,92.30
2018-01-05T09:49:26.005Z,92.50
2018-01-05T09:51:52.231Z,92.60
2018-01-05T09:54:19.222Z,92.60
2018-01-05T09:56:45.434Z,92.60
2018-01-05T09:59:11.603Z,92.00
2018-01-05T10:01:37.813Z,92.30
2018-01-05T10:04:04.731Z,92.40
2018-01-05T10:06:30.995Z,92.40
2018-01-05T10:08:57.934Z,92.30
2018-01-05T10:11:24.108Z,92.50
2018-01-05T10:13:50.326Z,92.00
2018-01-05T10:16:16.561Z,91.80
2018-01-05T10:18:42.775Z,92.00
2018-01-05T10:21:09.410Z,91.90
2018-01-05T10:23:35.906Z,91.90
2018-01-05T10:26:02.130Z,92.10
2018-01-05T10:28:28.407Z,92.30
2018-01-05T10:30:54.582Z,92.10
2018-01-05T10:33:21.533Z,91.90
2018-01-05T10:35:47.782Z,91.60
2018-01-05T10:38:13.970Z,91.00
2018-01-05T10:40:40.117Z,90.70
2018-01-05T10:43:06.341Z,90.70
2018-01-05T10:45:32.518Z,89.00
2018-01-05T10:47:58.666Z,89.50
2018-01-05T10:50:24.924Z,86.00
2018-01-05T10:52:51.137Z,86.70
2018-01-05T10:55:17.485Z,84.40
2018-01-05T10:57:43.704Z,85.00
2018-01-05T11:00:09.889Z,84.20
2018-01-05T11:02:36.073Z,84.00
2018-01-05T11:05:02.278Z,84.10
2018-01-05T11:07:28.510Z,83.00
2018-01-05T11:09:54.653Z,82.70
2018-01-05T11:12:20.863Z,82.50
2018-01-05T11:14:47.061Z,82.30
2018-01-05T11:17:13.943Z,82.30
2018-01-05T11:19:40.837Z,83.30
2018-01-05T11:22:07.011Z,82.30
2018-01-05T11:24:33.583Z,83.00
2018-01-05T11:26:59.831Z,84.70
2018-01-05T11:29:25.984Z,85.00
2018-01-05T11:31:52.290Z,84.70
2018-01-05T11:34:18.486Z,84.60
2018-01-05T11:36:45.072Z,84.60
2018-01-05T11:39:11.701Z,83.70
2018-01-05T11:41:37.874Z,82.30
2018-01-05T11:44:04.058Z,82.70
2018-01-05T11:46:30.287Z,82.90
2018-01-05T11:48:56.538Z,83.70
2018-01-05T11:51:37.660Z,84.00
2018-01-05T11:54:04.624Z,84.10
2018-01-05T11:56:30.855Z,84.40
2018-01-05T11:58:57.444Z,84.90
2018-01-05T12:01:23.633Z,85.00
2018-01-05T12:03:50.307Z,86.20
2018-01-05T12:06:16.867Z,86.50
2018-01-05T12:08:43.167Z,86.50
2018-01-05T12:11:10.138Z,86.20
2018-01-05T12:13:37.191Z,87.20
2018-01-05T12:16:04.243Z,88.30
2018-01-05T12:18:31.783Z,88.60
2018-01-05T12:20:58.006Z,88.10
2018-01-05T12:23:24.253Z,87.60
2018-01-05T12:25:50.405Z,87.60
2018-01-05T12:28:16.657Z,87.70
2018-01-05T12:30:43.048Z,87.70
2018-01-05T12:33:09.622Z,87.90
2018-01-05T12:35:36.605Z,87.80
2018-01-05T12:38:02.964Z,87.80
2018-01-05T12:40:29.193Z,87.70
2018-01-05T12:42:55.455Z,88.10
2018-01-05T12:45:21.669Z,88.00
2018-01-05T12:47:47.993Z,87.60
2018-01-05T12:50:14.237Z,87.70
2018-01-05T12:52:40.414Z,87.60
2018-01-05T12:55:06.607Z,87.50
2018-01-05T12:57:32.832Z,87.30
2018-01-05T12:59:59.442Z,86.00
2018-01-05T13:02:25.639Z,85.50
2018-01-05T13:04:52.014Z,85.50
2018-01-05T13:07:18.223Z,85.40
2018-01-05T13:09:44.500Z,84.90
2018-01-05T13:12:11.084Z,86.80
2018-01-05T13:14:37.524Z,87.50
2018-01-05T13:17:04.035Z,88.60
2018-01-05T13:19:30.277Z,88.60
2018-01-05T13:21:56.516Z,90.50
2018-01-05T13:24:23.426Z,87.90
2018-01-05T13:26:50.180Z,87.00
2018-01-05T13:29:17.509Z,87.20
2018-01-05T13:31:43.688Z,85.40
2018-01-05T13:34:10.287Z,84.70
2018-01-05T13:36:36.492Z,85.50
2018-01-05T13:39:02.710Z,86.50
2018-01-05T13:41:28.929Z,87.30
2018-01-05T13:43:55.154Z,88.60
2018-01-05T13:46:21.367Z,89.20
2018-01-05T13:48:48.384Z,89.90
2018-01-05T13:51:14.607Z,89.60
2018-01-05T13:53:40.828Z,89.60
2018-01-05T13:56:07.081Z,89.60
2018-01-05T13:58:33.290Z,89.60
2018-01-05T14:01:00.264Z,90.00
2018-01-05T14:03:27.259Z,89.80
2018-01-05T14:05:53.416Z,90.00
2018-01-05T15:30:15.834Z,91.50
2018-01-05T15:32:42.075Z,91.40
2018-01-05T15:35:09.033Z,91.70
2018-01-05T15:37:35.261Z,91.60
2018-01-05T15:40:01.452Z,91.70
2018-01-05T15:42:27.779Z,91.70
2018-01-05T15:44:54.006Z,91.80
2018-01-05T15:47:20.210Z,91.90
2018-01-05T15:49:47.143Z,91.60
2018-01-05T15:52:14.111Z,91.60
2018-01-05T15:54:40.696Z,91.40
2018-01-05T15:57:06.951Z,91.20
2018-01-05T15:59:33.179Z,91.30
2018-01-05T16:01:59.344Z,91.30
2018-01-05T16:04:25.570Z,91.60
2018-01-05T16:06:51.804Z,91.40
2018-01-05T16:09:18.018Z,91.50
2018-01-05T16:11:44.238Z,91.50
2018-01-05T16:14:10.509Z,91.60
2018-01-05T16:16:37.017Z,91.60
2018-01-05T16:19:03.306Z,91.70
2018-01-05T16:21:29.514Z,91.70
2018-01-05T16:23:55.717Z,91.90
2018-01-05T16:26:21.921Z,92.00
2018-01-05T16:28:48.121Z,91.90
2018-01-05T16:31:14.315Z,92.00
2018-01-05T16:33:40.987Z,92.00
2018-01-05T16:36:07.545Z,92.20
2018-01-05T16:38:33.745Z,92.00
2018-01-05T16:41:00.758Z,92.40
2018-01-05T16:43:28.554Z,92.30
2018-01-05T16:45:54.834Z,92.50
2018-01-05T16:48:21.073Z,92.70
2018-01-05T16:50:47.278Z,92.40
2018-01-05T16:53:13.469Z,92.40
2018-01-05T16:55:40.483Z,92.30
2018-01-05T16:58:06.725Z,92.30
2018-01-05T17:00:32.948Z,92.20
2018-01-05T17:02:59.200Z,92.20
2018-01-05T17:05:26.166Z,92.50
2018-01-05T17:07:53.110Z,92.60
2018-01-05T17:10:19.748Z,92.40
2018-01-05T17:12:46.817Z,92.30
2018-01-05T17:15:13.026Z,92.30
2018-01-05T17:17:39.320Z,92.50
2018-01-05T17:20:05.517Z,92.70
2018-01-05T17:22:31.715Z,92.70
2018-01-05T17:24:57.930Z,92.70
2018-01-05T17:27:24.294Z,92.90
2018-01-05T17:29:50.629Z,92.70
2018-01-05T17:32:16.854Z,92.70
2018-01-05T17:34:43.063Z,92.70
2018-01-05T17:37:09.229Z,92.70
2018-01-05T17:39:36.162Z,92.80
2018-01-05T17:42:02.374Z,92.70
2018-01-05T17:44:29.173Z,92.90
2018-01-05T17:46:55.421Z,92.90
2018-01-05T17:49:21.633Z,92.60
2018-01-05T17:51:47.862Z,92.70
2018-01-05T17:54:14.187Z,92.30
2018-01-05T17:56:40.407Z,92.30
2018-01-05T17:59:06.579Z,92.50
2018-01-05T18:01:32.834Z,91.90
2018-01-05T18:03:59.048Z,93.90
2018-01-05T18:06:25.291Z,93.80
2018-01-05T18:08:51.508Z,90.80
2018-01-05T18:11:18.531Z,90.50
2018-01-05T18:13:45.572Z,91.10
2018-01-05T18:16:12.713Z,91.30
2018-01-05T18:18:39.000Z,91.10
2018-01-05T18:21:05.219Z,91.30
2018-01-05T18:23:31.464Z,91.30
2018-01-05T18:25:58.382Z,91.40
2018-01-05T18:28:24.564Z,91.60
2018-01-05T18:30:50.801Z,91.80
2018-01-05T18:33:17.773Z,91.50
2018-01-05T18:35:44.366Z,91.50
2018-01-05T18:38:10.596Z,91.70
2018-01-05T18:40:37.108Z,91.60
2018-01-05T18:43:03.308Z,91.60
2018-01-05T18:45:29.705Z,91.50
2018-01-05T18:47:55.920Z,91.70
2018-01-05T18:50:22.301Z,91.60
2018-01-05T18:52:48.489Z,91.80
2018-01-05T18:55:14.721Z,91.70
2018-01-05T18:57:40.912Z,91.50
2018-01-05T19:00:07.138Z,91.70
2018-01-05T19:02:33.409Z,91.50
2018-01-05T19:04:59.634Z,91.30
2018-01-05T19:07:25.838Z,91.60
2018-01-05T19:09:52.055Z,91.30
2018-01-05T19:12:18.314Z,91.50
2018-01-05T19:14:44.493Z,91.80
2018-01-05T19:17:10.718Z,91.70
2018-01-05T19:19:36.985Z,92.40
2018-01-05T19:22:03.985Z,92.30
2018-01-05T19:27:19.352Z,91.60
2018-01-05T19:29:45.564Z,91.40
2018-01-05T19:32:11.772Z,91.40
2018-01-05T19:34:37.993Z,91.70
2018-01-05T19:37:04.186Z,91.70
2018-01-05T19:39:30.569Z,91.50
2018-01-05T19:41:56.752Z,91.50
2018-01-05T19:44:23.542Z,91.30
2018-01-05T19:46:50.570Z,91.60
2018-01-05T19:49:16.838Z,91.50
2018-01-05T19:51:43.135Z,91.30
2018-01-05T19:54:09.339Z,91.50
2018-01-05T19:56:35.687Z,91.10
2018-01-05T19:59:01.864Z,91.30
2018-01-05T20:01:28.082Z,91.10
2018-01-05T20:03:54.263Z,91.00
2018-01-05T20:06:20.475Z,91.00
2018-01-05T20:08:46.683Z,91.00
2018-01-05T20:11:12.932Z,90.90
2018-01-05T20:13:39.153Z,91.00
2018-01-05T20:16:05.336Z,91.30
2018-01-05T20:18:31.512Z,91.10
2018-01-05T20:20:57.728Z,91.40
2018-01-05T20:23:23.949Z,91.50
2018-01-05T20:25:50.228Z,91.50
2018-01-05T20:28:16.458Z,91.30
2018-01-05T20:30:43.508Z,91.60
2018-01-05T20:33:09.760Z,91.30
2018-01-05T20:35:35.974Z,91.20
2018-01-05T20:38:02.271Z,91.20
2018-01-05T20:40:28.506Z,91.10
2018-01-05T20:42:55.679Z,91.20
2018-01-05T20:45:22.862Z,91.50
2018-01-05T20:47:49.204Z,91.40
2018-01-05T20:50:15.800Z,91.30
2018-01-05T20:52:42.165Z,91.30
2018-01-05T20:55:08.369Z,91.30
2018-01-05T20:57:34.829Z,91.20
2018-01-05T21:00:01.094Z,91.30
2018-01-05T21:02:27.336Z,91.20
2018-01-05T21:04:53.709Z,91.20
2018-01-05T21:07:20.463Z,91.30
2018-01-05T21:09:46.766Z,91.50
2018-01-05T21:12:12.963Z,91.50
2018-01-05T21:14:39.280Z,91.70
2018-01-05T21:17:05.562Z,91.90
2018-01-05T21:19:31.714Z,91.70
2018-01-05T21:21:57.919Z,91.70
2018-01-05T21:24:24.145Z,91.60
2018-01-05T21:26:50.354Z,91.80
2018-01-05T21:29:16.605Z,91.70
2018-01-05T21:31:42.776Z,91.40
2018-01-05T21:34:08.985Z,91.50
2018-01-05T21:36:35.244Z,91.60
2018-01-05T21:39:01.466Z,91.70
2018-01-05T21:41:27.661Z,91.70
2018-01-05T21:43:53.915Z,91.80
2018-01-05T21:46:20.151Z,91.80
2018-01-05T21:48:46.371Z,91.80
2018-01-05T21:51:12.544Z,92.00
2018-01-05T21:53:38.824Z,91.90
2018-01-05T21:56:04.998Z,91.90
2018-01-05T21:58:31.997Z,92.10
2018-01-05T22:00:58.196Z,91.80
2018-01-05T22:03:24.774Z,91.80
2018-01-05T22:05:51.319Z,91.70
2018-01-05T22:08:17.523Z,91.70
2018-01-05T22:10:43.745Z,91.70
2018-01-05T22:13:10.020Z,91.90
2018-01-05T22:15:36.257Z,91.80
2018-01-05T22:18:02.431Z,92.00
2018-01-05T22:20:28.664Z,91.90
2018-01-05T22:22:54.849Z,91.80
2018-01-05T22:25:21.546Z,91.90
2018-01-05T22:27:47.764Z,92.20
2018-01-05T22:30:14.752Z,92.10
2018-01-05T22:32:41.700Z,92.50
2018-01-05T22:35:07.881Z,92.30
2018-01-05T22:37:34.132Z,92.60
2018-01-05T22:40:00.337Z,92.00
2018-01-05T22:42:26.547Z,92.20
2018-01-05T22:44:53.033Z,91.80
2018-01-05T22:47:19.318Z,91.80
2018-01-05T22:49:45.523Z,91.70
2018-01-05T22:52:11.764Z,91.70
2018-01-05T22:54:38.003Z,91.70
2018-01-05T22:57:04.254Z,91.90
2018-01-05T22:59:30.932Z,92.00
2018-01-05T23:01:57.193Z,92.00
2018-01-05T23:04:23.366Z,92.20
2018-01-05T23:06:49.668Z,92.30
2018-01-05T23:09:15.948Z,92.20
2018-01-05T23:11:42.952Z,92.10
2018-01-05T23:14:09.166Z,92.10
2018-01-05T23:16:35.340Z,92.00
2018-01-05T23:19:01.513Z,92.00
2018-01-05T23:21:27.675Z,92.30
2018-01-05T23:23:53.838Z,91.90
2018-01-05T23:26:20.110Z,92.00
2018-01-05T23:28:46.307Z,92.10
2018-01-05T23:31:12.606Z,92.30
2018-01-05T23:33:38.825Z,92.20
2018-01-05T23:36:05.073Z,92.70
2018-01-05T23:38:31.353Z,92.60
2018-01-05T23:40:57.598Z,92.70
2018-01-05T23:43:24.551Z,92.90
2018-01-05T23:45:50.802Z,92.60
2018-01-05T23:48:17.032Z,92.50
2018-01-05T23:50:43.343Z,92.60
2018-01-05T23:53:10.208Z,92.70
2018-01-05T23:55:36.407Z,92.70
2018-01-05T23:58:03.518Z,92.90
